Time;durP1;ratioP1;P1;durP2;ratioP2;P2;SDS_P1;SDS_P2;PMS_P1;PMS_P2;Temp;Humidity;BMP_temperature;BMP_pressure;BME280_temperature;BME280_humidity;BME280_pressure;Samples;Min_cycle;Max_cycle;Signal;HPM_P1;HPM_P2
2023/05/15 00:00:09;;;;;;;11.93;1.20;;;;;;;8.39;100.00;101294.56;5042112;28;20064;-77
2023/05/15 00:02:43;;;;;;;11.13;1.40;;;;;;;8.47;100.00;101299.28;5040570;28;20124;-77
2023/05/15 00:05:12;;;;;;;8.20;1.85;;;;;;;8.48;100.00;101303.59;5044590;28;20033;-77
2023/05/15 00:07:41;;;;;;;4.38;1.05;;;;;;;8.49;100.00;101302.66;5037897;28;20035;-77
2023/05/15 00:10:09;;;;;;;3.83;0.98;;;;;;;8.48;100.00;101299.16;5040418;28;20508;-77
2023/05/15 00:12:38;;;;;;;10.13;1.38;;;;;;;8.49;100.00;101300.03;5038626;28;20060;-77
2023/05/15 00:15:06;;;;;;;4.55;1.10;;;;;;;8.49;100.00;101303.47;5042002;28;20032;-76
2023/05/15 00:17:35;;;;;;;3.60;1.10;;;;;;;8.49;100.00;101307.94;5030620;28;20477;-77
2023/05/15 00:20:04;;;;;;;7.45;1.92;;;;;;;8.46;100.00;101311.59;5045542;28;20044;-77
2023/05/15 00:22:32;;;;;;;9.43;1.73;;;;;;;8.46;100.00;101310.78;5049951;28;20048;-77
2023/05/15 00:24:59;;;;;;;5.78;1.25;;;;;;;8.36;100.00;101308.78;5044406;28;20758;-77
2023/05/15 00:27:28;;;;;;;14.73;1.67;;;;;;;8.32;100.00;101309.94;5040932;28;20031;-77
2023/05/15 00:29:56;;;;;;;4.75;1.35;;;;;;;8.25;100.00;101309.53;5046665;28;20186;-77
2023/05/15 00:32:24;;;;;;;5.15;1.35;;;;;;;8.22;100.00;101307.13;5047664;28;20037;-77
2023/05/15 00:34:52;;;;;;;5.15;0.95;;;;;;;8.19;100.00;101310.81;5043570;28;20086;-77
2023/05/15 00:37:20;;;;;;;4.85;1.17;;;;;;;8.19;100.00;101318.72;5046960;28;20048;-77
2023/05/15 00:39:48;;;;;;;8.02;1.10;;;;;;;8.14;100.00;101315.56;5030813;28;20040;-77
2023/05/15 00:42:17;;;;;;;8.80;1.10;;;;;;;8.13;100.00;101313.88;5044662;28;20033;-77
2023/05/15 00:44:46;;;;;;;5.22;1.05;;;;;;;8.09;100.00;101317.66;5041944;28;20033;-77
2023/05/15 00:47:15;;;;;;;6.85;1.17;;;;;;;8.06;100.00;101324.00;5047383;28;20039;-77
2023/05/15 00:49:43;;;;;;;5.78;1.27;;;;;;;8.04;100.00;101332.94;5043875;28;20040;-77
2023/05/15 00:52:13;;;;;;;5.55;1.50;;;;;;;8.04;100.00;101327.69;5043467;28;20848;-77
2023/05/15 00:54:42;;;;;;;7.97;1.60;;;;;;;7.98;100.00;101325.47;5043635;28;20049;-77
2023/05/15 00:57:11;;;;;;;7.15;1.08;;;;;;;7.96;100.00;101325.59;5027703;28;20425;-77
2023/05/15 00:59:42;;;;;;;3.80;0.82;;;;;;;7.94;100.00;101330.94;5045473;28;20076;-77
2023/05/15 01:02:10;;;;;;;3.78;1.10;;;;;;;7.91;100.00;101336.44;5019121;28;20038;-77
2023/05/15 01:04:40;;;;;;;7.85;1.67;;;;;;;7.88;100.00;101331.38;5018169;28;20111;-77
2023/05/15 01:07:08;;;;;;;5.95;0.85;;;;;;;7.80;100.00;101336.31;5036532;28;20029;-77
2023/05/15 01:09:40;;;;;;;7.88;1.30;;;;;;;7.77;100.00;101347.88;5057951;28;20029;-77
2023/05/15 01:12:09;;;;;;;7.13;1.17;;;;;;;7.67;100.00;101336.28;5037485;28;20037;-77
2023/05/15 01:14:38;;;;;;;4.95;1.15;;;;;;;7.54;100.00;101337.13;5043053;28;20127;-77
2023/05/15 01:17:06;;;;;;;1.60;0.70;;;;;;;7.43;100.00;101332.56;5054083;28;20397;-77
2023/05/15 01:19:35;;;;;;;5.07;1.30;;;;;;;7.38;100.00;101326.75;5017794;28;20033;-77
2023/05/15 01:22:36;;;;;;;4.45;1.25;;;;;;;7.37;100.00;101332.13;5025549;28;20105;-77
2023/05/15 01:25:18;;;;;;;8.10;2.25;;;;;;;7.36;100.00;101330.44;5041347;28;20037;-77
2023/05/15 01:28:03;;;;;;;10.32;1.20;;;;;;;7.31;100.00;101323.69;5021977;28;20338;-77
2023/05/15 01:30:35;;;;;;;5.35;1.23;;;;;;;7.29;100.00;101327.38;5018502;28;20068;-77
2023/05/15 01:33:25;;;;;;;4.13;1.40;;;;;;;7.26;100.00;101327.56;5039084;28;20115;-77
2023/05/15 01:36:06;;;;;;;3.60;0.80;;;;;;;7.16;100.00;101333.44;5054007;28;20041;-77
2023/05/15 01:38:38;;;;;;;6.35;1.08;;;;;;;7.06;100.00;101327.06;5043318;28;20032;-77
2023/05/15 01:41:11;;;;;;;11.30;1.33;;;;;;;7.02;100.00;101330.84;5038446;28;20397;-77
2023/05/15 01:43:45;;;;;;;6.00;1.42;;;;;;;7.01;100.00;101330.00;5045627;28;20087;-77
2023/05/15 01:46:19;;;;;;;10.65;1.50;;;;;;;6.98;100.00;101330.19;5045743;28;20037;-77
2023/05/15 01:48:49;;;;;;;7.38;1.40;;;;;;;6.90;100.00;101329.84;5019949;28;20037;-77
2023/05/15 01:51:20;;;;;;;10.45;1.33;;;;;;;6.90;100.00;101332.47;5038653;28;20048;-77
2023/05/15 01:53:49;;;;;;;6.68;0.98;;;;;;;6.91;100.00;101332.38;5044726;28;20034;-77
2023/05/15 01:56:22;;;;;;;6.15;1.35;;;;;;;6.81;100.00;101329.50;5029516;28;20056;-77
2023/05/15 01:58:53;;;;;;;6.40;1.52;;;;;;;6.76;100.00;101334.22;5012258;28;20037;-77
2023/05/15 02:01:24;;;;;;;8.15;0.88;;;;;;;6.71;100.00;101331.03;5045194;28;20489;-75
2023/05/15 02:03:54;;;;;;;6.72;1.20;;;;;;;6.64;100.00;101334.97;5041620;28;20074;-75
2023/05/15 02:06:23;;;;;;;5.03;1.20;;;;;;;6.54;100.00;101335.56;5044578;28;20083;-77
2023/05/15 02:08:52;;;;;;;3.15;0.80;;;;;;;6.53;100.00;101339.09;5038622;28;20040;-77
2023/05/15 02:11:20;;;;;;;4.78;1.15;;;;;;;6.47;100.00;101331.63;5040494;28;20029;-77
2023/05/15 02:13:51;;;;;;;7.05;1.38;;;;;;;6.41;100.00;101338.09;5044989;28;20025;-77
2023/05/15 02:16:21;;;;;;;5.47;0.93;;;;;;;6.44;100.00;101345.78;5042123;28;20493;-77
2023/05/15 02:18:51;;;;;;;4.88;0.98;;;;;;;6.54;100.00;101335.56;5049229;28;20546;-77
2023/05/15 02:21:21;;;;;;;5.20;1.27;;;;;;;6.70;100.00;101337.22;5038809;28;20485;-76
2023/05/15 02:23:47;;;;;;;5.93;1.38;;;;;;;6.81;100.00;101340.03;5021854;28;20603;-77
2023/05/15 02:26:50;;;;;;;5.25;1.00;;;;;;;6.94;100.00;101339.25;5045423;28;20043;-77
2023/05/15 02:29:31;;;;;;;5.13;0.82;;;;;;;6.98;100.00;101335.47;5039705;28;20040;-77
2023/05/15 02:32:35;;;;;;;9.65;1.17;;;;;;;7.04;100.00;101340.31;5052964;28;20128;-77
2023/05/15 02:35:31;;;;;;;8.88;1.08;;;;;;;7.12;100.00;101337.19;5042143;28;20024;-77
2023/05/15 02:38:06;;;;;;;5.28;1.10;;;;;;;7.17;100.00;101339.53;5020509;28;20132;-77
2023/05/15 02:40:36;;;;;;;5.32;0.93;;;;;;;7.18;100.00;101346.47;5038342;28;20033;-77
2023/05/15 02:43:07;;;;;;;6.88;1.83;;;;;;;7.19;100.00;101341.13;5039441;28;20095;-77
2023/05/15 02:45:35;;;;;;;3.88;0.98;;;;;;;7.18;100.00;101354.38;5039213;28;20025;-77
2023/05/15 02:48:04;;;;;;;3.53;0.68;;;;;;;7.13;100.00;101345.94;5046150;28;20025;-77
2023/05/15 02:50:33;;;;;;;6.10;0.98;;;;;;;7.10;100.00;101349.63;5057687;28;20482;-77
2023/05/15 02:53:08;;;;;;;6.65;1.10;;;;;;;7.06;100.00;101343.69;5049871;28;20025;-77
2023/05/15 02:55:38;;;;;;;3.25;0.85;;;;;;;6.99;100.00;101342.38;5061260;28;20518;-77
2023/05/15 02:58:09;;;;;;;4.43;0.80;;;;;;;6.89;100.00;101344.78;5034218;28;20033;-77
2023/05/15 03:00:38;;;;;;;5.65;1.50;;;;;;;6.82;100.00;101351.34;5045342;28;20060;-77
2023/05/15 03:03:05;;;;;;;4.20;1.20;;;;;;;6.76;100.00;101342.09;5043204;28;20074;-77
2023/05/15 03:05:33;;;;;;;7.82;1.00;;;;;;;6.71;100.00;101346.78;5031089;28;20051;-77
2023/05/15 03:08:01;;;;;;;6.15;1.20;;;;;;;6.65;100.00;101341.91;5031262;28;20115;-77
2023/05/15 03:10:30;;;;;;;4.97;1.05;;;;;;;6.68;100.00;101342.56;5028115;28;20049;-77
2023/05/15 03:12:57;;;;;;;4.05;1.02;;;;;;;6.69;100.00;101351.28;5026906;28;20501;-77
2023/05/15 03:15:25;;;;;;;5.53;0.80;;;;;;;6.70;100.00;101342.47;5049290;28;20044;-77
2023/05/15 03:17:53;;;;;;;2.10;1.13;;;;;;;6.66;100.00;101346.22;5050935;28;20444;-77
2023/05/15 03:20:22;;;;;;;5.05;1.08;;;;;;;6.66;100.00;101347.06;5036743;28;20033;-77
2023/05/15 03:22:49;;;;;;;6.15;0.95;;;;;;;6.64;100.00;101354.19;5041434;28;20041;-77
2023/05/15 03:25:17;;;;;;;7.85;1.10;;;;;;;6.67;100.00;101356.63;5030600;28;20029;-77
2023/05/15 03:27:45;;;;;;;4.13;0.80;;;;;;;6.66;100.00;101343.59;5044918;28;20038;-77
2023/05/15 03:30:15;;;;;;;8.27;1.00;;;;;;;6.63;100.00;101351.66;5045640;28;20095;-77
2023/05/15 03:32:45;;;;;;;8.73;1.30;;;;;;;6.57;100.00;101351.13;5048216;28;20116;-77
2023/05/15 03:35:14;;;;;;;3.90;1.20;;;;;;;6.55;100.00;101349.53;5039173;28;20037;-77
2023/05/15 03:37:44;;;;;;;9.55;1.33;;;;;;;6.47;100.00;101357.88;5046030;28;20574;-76
2023/05/15 03:40:12;;;;;;;9.77;1.38;;;;;;;6.36;100.00;101352.44;5043240;28;20053;-77
2023/05/15 03:42:41;;;;;;;6.93;1.30;;;;;;;6.31;100.00;101357.97;5046295;28;20041;-76
2023/05/15 03:45:09;;;;;;;7.97;0.90;;;;;;;6.30;100.00;101364.16;5043108;28;20041;-77
2023/05/15 03:47:38;;;;;;;5.05;1.50;;;;;;;6.35;100.00;101359.50;5055740;28;20029;-77
2023/05/15 03:50:06;;;;;;;11.77;1.08;;;;;;;6.37;100.00;101368.09;5039624;28;21515;-76
2023/05/15 03:52:34;;;;;;;7.63;0.82;;;;;;;6.37;100.00;101368.09;5028144;28;20041;-77
2023/05/15 03:55:02;;;;;;;9.00;0.88;;;;;;;6.42;100.00;101373.91;5048007;28;20033;-77
2023/05/15 03:57:34;;;;;;;6.85;1.25;;;;;;;6.45;100.00;101363.22;5039292;28;20426;-77
2023/05/15 04:00:08;;;;;;;6.63;0.90;;;;;;;6.50;100.00;101362.94;5045151;28;20188;-76
2023/05/15 04:02:41;;;;;;;6.53;0.77;;;;;;;6.57;100.00;101366.91;5048445;28;20037;-77
2023/05/15 04:05:11;;;;;;;8.15;1.48;;;;;;;6.67;100.00;101361.88;5037735;28;20116;-77
2023/05/15 04:07:40;;;;;;;13.75;2.80;;;;;;;6.77;100.00;101356.09;5040642;28;20021;-77
2023/05/15 04:10:08;;;;;;;11.13;1.02;;;;;;;6.76;100.00;101355.22;5041487;28;20039;-77
2023/05/15 04:12:35;;;;;;;5.93;1.13;;;;;;;6.84;100.00;101349.47;5034142;28;20039;-77
2023/05/15 04:15:18;;;;;;;4.35;1.10;;;;;;;6.88;100.00;101350.16;5046687;28;20028;-76
2023/05/15 04:17:50;;;;;;;4.57;0.65;;;;;;;6.89;100.00;101346.56;5046516;28;20029;-75
2023/05/15 04:20:21;;;;;;;5.43;1.02;;;;;;;6.90;100.00;101345.63;5042035;28;20042;-74
2023/05/15 04:22:49;;;;;;;6.47;0.85;;;;;;;6.94;100.00;101347.13;5040660;28;20037;-77
2023/05/15 04:25:17;;;;;;;8.43;1.20;;;;;;;6.97;100.00;101349.56;5030387;28;20068;-77
2023/05/15 04:27:45;;;;;;;7.10;1.05;;;;;;;6.95;100.00;101349.66;5046981;28;20035;-77
2023/05/15 04:30:13;;;;;;;8.25;0.80;;;;;;;6.92;100.00;101347.22;5045251;28;20040;-77
2023/05/15 04:32:41;;;;;;;5.18;1.13;;;;;;;6.86;100.00;101352.88;5047501;28;20024;-74
2023/05/15 04:35:10;;;;;;;7.32;1.20;;;;;;;6.77;100.00;101345.56;5047906;28;20119;-75
2023/05/15 04:37:40;;;;;;;8.10;1.13;;;;;;;6.69;100.00;101346.88;5039593;28;20047;-77
2023/05/15 04:40:08;;;;;;;5.43;1.13;;;;;;;6.60;100.00;101343.97;5016487;28;20037;-77
2023/05/15 04:42:37;;;;;;;9.75;2.20;;;;;;;6.49;100.00;101339.41;5045928;28;20512;-77
2023/05/15 04:45:08;;;;;;;11.48;1.20;;;;;;;6.47;100.00;101347.38;5045452;28;20040;-77
2023/05/15 04:47:37;;;;;;;5.60;1.85;;;;;;;6.42;100.00;101346.81;5045321;28;20033;-77
2023/05/15 04:50:05;;;;;;;5.55;1.80;;;;;;;6.38;100.00;101345.31;5042804;28;20036;-76
2023/05/15 04:52:33;;;;;;;8.38;1.38;;;;;;;6.36;100.00;101353.28;5044711;28;20543;-75
2023/05/15 04:55:01;;;;;;;4.80;0.68;;;;;;;6.33;100.00;101353.47;5045227;28;20074;-75
2023/05/15 04:57:29;;;;;;;9.00;1.20;;;;;;;6.31;100.00;101358.81;5043378;28;20077;-77
2023/05/15 04:59:58;;;;;;;2.15;0.80;;;;;;;6.26;100.00;101352.19;5040386;28;20394;-77
2023/05/15 05:02:25;;;;;;;7.45;1.00;;;;;;;6.28;100.00;101353.75;5045050;28;20032;-77
2023/05/15 05:04:53;;;;;;;7.25;1.23;;;;;;;6.20;100.00;101354.22;5040246;28;20048;-77
2023/05/15 05:07:20;;;;;;;6.90;1.65;;;;;;;6.18;100.00;101357.91;5035217;28;20045;-77
2023/05/15 05:09:49;;;;;;;5.28;1.50;;;;;;;6.19;100.00;101349.06;5045765;28;20035;-77
2023/05/15 05:12:16;;;;;;;5.32;1.17;;;;;;;6.20;100.00;101354.22;5041163;28;20033;-77
2023/05/15 05:14:44;;;;;;;6.35;1.00;;;;;;;6.18;100.00;101357.91;5044022;28;20032;-77
2023/05/15 05:17:12;;;;;;;4.88;0.98;;;;;;;6.22;100.00;101351.50;5046788;28;20417;-77
2023/05/15 05:19:40;;;;;;;7.85;1.40;;;;;;;6.22;100.00;101351.50;5042909;28;20029;-77
2023/05/15 05:22:08;;;;;;;12.13;1.13;;;;;;;6.28;100.00;101356.38;5041136;28;20416;-77
2023/05/15 05:24:36;;;;;;;6.43;0.98;;;;;;;6.32;100.00;101360.50;5027225;28;20036;-77
2023/05/15 05:27:04;;;;;;;7.18;0.80;;;;;;;6.36;100.00;101366.41;5041841;28;20028;-77
2023/05/15 05:29:32;;;;;;;12.30;0.98;;;;;;;6.43;100.00;101365.09;5043236;28;20289;-77
2023/05/15 05:32:00;;;;;;;9.30;0.98;;;;;;;6.47;100.00;101360.50;5045153;28;20040;-77
2023/05/15 05:34:28;;;;;;;7.70;0.90;;;;;;;6.52;100.00;101363.69;5041394;28;20033;-77
2023/05/15 05:36:56;;;;;;;7.53;1.15;;;;;;;6.60;100.00;101362.38;5022564;28;20455;-77
2023/05/15 05:39:24;;;;;;;4.70;0.68;;;;;;;6.66;100.00;101367.25;5048461;28;20063;-76
2023/05/15 05:41:51;;;;;;;9.73;1.02;;;;;;;6.68;100.00;101368.84;5029240;28;20374;-77
2023/05/15 05:44:20;;;;;;;9.05;1.17;;;;;;;6.69;100.00;101374.94;5046267;28;20488;-77
2023/05/15 05:46:47;;;;;;;6.40;0.93;;;;;;;6.65;100.00;101381.31;5042140;28;20026;-77
2023/05/15 05:49:16;;;;;;;3.45;1.00;;;;;;;6.54;100.00;101380.22;5001165;28;20112;-77
2023/05/15 05:51:45;;;;;;;6.70;1.40;;;;;;;6.55;100.00;101374.03;5049314;28;20095;-77
2023/05/15 05:54:14;;;;;;;8.95;1.20;;;;;;;6.56;100.00;101380.94;5048565;28;20574;-77
2023/05/15 05:56:41;;;;;;;2.92;0.63;;;;;;;6.64;100.00;101375.22;5047053;28;20045;-77
2023/05/15 05:59:10;;;;;;;9.52;1.35;;;;;;;6.68;100.00;101374.09;5050542;28;20397;-77
2023/05/15 06:01:37;;;;;;;6.00;0.90;;;;;;;6.73;100.00;101379.06;5046601;28;20116;-77
2023/05/15 06:04:06;;;;;;;8.57;0.95;;;;;;;6.77;100.00;101380.56;5047290;28;20127;-77
2023/05/15 06:06:34;;;;;;;5.22;1.00;;;;;;;6.88;100.00;101381.69;5048976;28;20033;-77
2023/05/15 06:09:02;;;;;;;7.47;0.98;;;;;;;6.91;100.00;101382.31;5048914;28;20029;-77
2023/05/15 06:11:31;;;;;;;12.55;1.45;;;;;;;6.97;100.00;101374.97;5049302;28;20029;-77
2023/05/15 06:13:59;;;;;;;9.25;1.20;;;;;;;7.03;100.00;101377.22;5041445;28;20037;-76
2023/05/15 06:16:27;;;;;;;13.93;1.13;;;;;;;7.11;100.00;101374.09;5046589;28;20045;-75
2023/05/15 06:18:55;;;;;;;9.90;1.10;;;;;;;7.12;100.00;101371.38;5043297;28;20075;-75
2023/05/15 06:21:23;;;;;;;10.82;1.15;;;;;;;7.22;100.00;101376.03;5038934;28;20520;-77
2023/05/15 06:23:50;;;;;;;8.15;1.35;;;;;;;7.27;100.00;101376.59;4963960;28;20040;-77
2023/05/15 06:26:18;;;;;;;6.78;1.08;;;;;;;7.38;100.00;101381.13;5049334;28;20447;-77
2023/05/15 06:28:46;;;;;;;4.75;1.02;;;;;;;7.46;100.00;101376.22;5032375;28;20408;-77
2023/05/15 06:31:14;;;;;;;10.80;0.82;;;;;;;7.55;100.00;101386.16;5051465;28;20037;-77
2023/05/15 06:33:42;;;;;;;12.07;1.45;;;;;;;7.59;100.00;101388.56;5051447;28;20036;-75
2023/05/15 06:36:09;;;;;;;4.50;1.20;;;;;;;7.65;100.00;101390.78;5050952;28;20111;-75
2023/05/15 06:38:37;;;;;;;14.38;1.90;;;;;;;7.69;100.00;101390.50;5045708;28;20065;-77
2023/05/15 06:41:05;;;;;;;7.70;1.60;;;;;;;7.79;100.00;101393.34;5051583;28;20037;-77
2023/05/15 06:43:33;;;;;;;10.32;1.60;;;;;;;7.84;100.00;101390.41;5046296;28;20028;-77
2023/05/15 06:46:00;;;;;;;6.53;0.95;;;;;;;7.92;100.00;101398.66;5043548;28;20159;-77
2023/05/15 06:48:28;;;;;;;9.23;1.30;;;;;;;7.98;100.00;101389.47;5042046;28;20040;-77
2023/05/15 06:50:56;;;;;;;8.73;1.45;;;;;;;8.07;100.00;101402.03;5044882;28;20032;-77
2023/05/15 06:53:24;;;;;;;8.85;1.33;;;;;;;8.09;100.00;101396.66;5041303;28;20036;-77
2023/05/15 06:55:52;;;;;;;5.10;1.10;;;;;;;8.18;100.00;101411.00;5042686;28;20083;-77
2023/05/15 06:58:21;;;;;;;6.95;1.17;;;;;;;8.28;100.00;101401.50;5044547;28;20032;-77
2023/05/15 07:00:49;;;;;;;12.20;1.55;;;;;;;8.31;100.00;101396.03;5044732;28;20437;-77
2023/05/15 07:03:18;;;;;;;9.30;1.42;;;;;;;8.42;100.00;101394.44;5025752;28;20753;-77
2023/05/15 07:05:45;;;;;;;5.68;1.30;;;;;;;8.49;100.00;101395.69;5043987;28;20037;-77
2023/05/15 07:08:13;;;;;;;6.43;1.10;;;;;;;8.59;100.00;101397.72;5045587;28;20440;-77
2023/05/15 07:10:41;;;;;;;11.15;1.20;;;;;;;8.67;100.00;101400.66;5041061;28;20547;-77
2023/05/15 07:13:11;;;;;;;6.47;0.90;;;;;;;8.85;100.00;101401.16;5042432;28;20095;-77
2023/05/15 07:15:40;;;;;;;5.97;1.00;;;;;;;8.98;100.00;101408.19;5040476;28;20056;-77
2023/05/15 07:18:09;;;;;;;8.68;1.05;;;;;;;9.01;100.00;101398.28;5043338;28;20037;-77
2023/05/15 07:20:37;;;;;;;4.60;0.82;;;;;;;9.10;100.00;101396.75;5039327;28;20060;-77
2023/05/15 07:23:06;;;;;;;8.05;1.10;;;;;;;9.20;100.00;101404.00;5044890;28;20362;-77
2023/05/15 07:25:33;;;;;;;7.18;1.20;;;;;;;9.25;100.00;101404.53;5041511;28;20045;-77
2023/05/15 07:28:01;;;;;;;9.30;0.82;;;;;;;9.33;100.00;101398.69;5039426;28;20386;-77
2023/05/15 07:30:29;;;;;;;10.57;1.73;;;;;;;9.31;100.00;101398.78;5040921;28;20033;-77
2023/05/15 07:32:57;;;;;;;6.10;0.93;;;;;;;9.32;100.00;101400.47;5040468;28;20037;-75
2023/05/15 07:35:25;;;;;;;7.22;0.98;;;;;;;9.39;100.00;101398.22;5044133;28;20029;-75
2023/05/15 07:37:53;;;;;;;4.03;0.68;;;;;;;9.51;100.00;101402.59;5046761;28;20102;-77
2023/05/15 07:40:21;;;;;;;5.32;0.80;;;;;;;9.53;100.00;101397.22;5039943;28;20505;-77
2023/05/15 07:42:49;;;;;;;14.07;1.60;;;;;;;9.61;100.00;101392.22;5039216;28;20033;-78
2023/05/15 07:45:16;;;;;;;7.10;1.17;;;;;;;9.62;100.00;101395.69;5039522;28;20115;-77
2023/05/15 07:47:45;;;;;;;6.40;1.10;;;;;;;9.66;100.00;101384.78;5041537;28;20036;-75
2023/05/15 07:50:13;;;;;;;5.97;0.90;;;;;;;9.68;100.00;101382.84;5041508;28;20040;-75
2023/05/15 07:52:44;;;;;;;5.28;1.00;;;;;;;9.77;100.00;101385.78;5024674;28;20061;-77
2023/05/15 07:55:13;;;;;;;5.70;0.80;;;;;;;9.98;100.00;101391.25;5039020;28;20516;-77
2023/05/15 07:57:44;;;;;;;5.40;0.80;;;;;;;10.22;100.00;101387.66;5040918;28;20051;-77
2023/05/15 08:00:14;;;;;;;5.00;0.70;;;;;;;10.40;100.00;101403.06;5037140;28;20086;-77
2023/05/15 08:02:45;;;;;;;5.47;0.70;;;;;;;10.41;100.00;101392.38;5039902;28;20198;-77
2023/05/15 08:05:12;;;;;;;8.23;1.27;;;;;;;10.50;100.00;101392.63;5040573;28;20084;-77
2023/05/15 08:07:40;;;;;;;3.22;0.98;;;;;;;10.66;100.00;101392.25;5023820;28;20130;-77
2023/05/15 08:10:08;;;;;;;2.88;0.68;;;;;;;10.71;100.00;101394.53;5040246;28;20518;-77
2023/05/15 08:12:36;;;;;;;7.65;1.08;;;;;;;10.65;100.00;101390.59;5060479;28;20036;-78
2023/05/15 08:15:05;;;;;;;14.70;1.65;;;;;;;10.60;100.00;101393.59;5045899;28;20032;-77
2023/05/15 08:17:33;;;;;;;11.55;1.15;;;;;;;10.72;100.00;101402.34;5040823;28;20025;-77
2023/05/15 08:20:00;;;;;;;3.55;0.80;;;;;;;10.79;100.00;101394.78;5037183;28;20045;-77
2023/05/15 08:22:29;;;;;;;4.40;0.70;;;;;;;10.88;100.00;101407.25;5047911;28;20090;-77
2023/05/15 08:24:58;;;;;;;5.13;0.70;;;;;;;10.86;100.00;101403.06;5045866;28;20040;-77
2023/05/15 08:27:26;;;;;;;2.80;0.57;;;;;;;10.74;100.00;101407.50;5041676;28;20083;-77
2023/05/15 08:29:53;;;;;;;6.65;1.02;;;;;;;10.59;100.00;101404.28;5039364;28;20025;-77
2023/05/15 08:32:21;;;;;;;2.60;0.70;;;;;;;10.51;100.00;101402.25;5044054;28;20045;-77
2023/05/15 08:34:49;;;;;;;5.00;0.65;;;;;;;10.57;100.00;101396.47;5039291;28;20628;-77
2023/05/15 08:37:17;;;;;;;7.45;0.93;;;;;;;10.76;100.00;101406.44;5032721;28;20036;-77
2023/05/15 08:39:44;;;;;;;7.97;0.75;;;;;;;10.75;100.00;101407.38;5040081;28;20036;-77
2023/05/15 08:42:30;;;;;;;5.18;0.50;;;;;;;10.86;100.00;101406.53;5045525;28;20124;-77
2023/05/15 08:44:59;;;;;;;3.65;0.60;;;;;;;10.94;100.00;101405.91;5027443;28;20755;-77
2023/05/15 08:47:32;;;;;;;4.90;0.50;;;;;;;11.06;100.00;101405.91;5036688;28;20402;-77
2023/05/15 08:50:14;;;;;;;4.18;0.95;;;;;;;11.07;100.00;101405.78;5044312;28;20025;-77
2023/05/15 08:52:47;;;;;;;1.92;0.50;;;;;;;11.14;100.00;101409.63;5035558;28;20723;-77
2023/05/15 08:55:18;;;;;;;5.95;0.75;;;;;;;11.22;100.00;101409.00;5040807;28;20432;-77
2023/05/15 08:57:48;;;;;;;6.75;0.55;;;;;;;11.27;100.00;101401.53;5044559;28;20055;-77
2023/05/15 09:00:19;;;;;;;5.38;0.80;;;;;;;11.23;100.00;101401.88;5035938;28;20033;-77
2023/05/15 09:02:47;;;;;;;3.67;0.60;;;;;;;11.33;100.00;101405.47;5040111;28;20056;-77
2023/05/15 09:05:15;;;;;;;2.90;0.60;;;;;;;11.36;100.00;101409.66;5039354;28;20490;-77
2023/05/15 09:07:44;;;;;;;3.92;1.02;;;;;;;11.30;100.00;101411.03;5048782;28;20032;-77
2023/05/15 09:10:12;;;;;;;6.40;1.13;;;;;;;11.32;100.00;101408.25;5040365;28;20033;-77
2023/05/15 09:12:44;;;;;;;3.55;0.50;;;;;;;11.40;100.00;101413.75;5030413;28;20112;-77
2023/05/15 09:15:21;;;;;;;8.00;0.70;;;;;;;11.57;100.00;101417.66;5040691;28;20033;-77
2023/05/15 09:17:51;;;;;;;3.33;0.52;;;;;;;11.59;100.00;101406.94;5043772;28;20025;-77
2023/05/15 09:20:26;;;;;;;4.50;0.80;;;;;;;11.73;100.00;101414.59;5043772;28;20028;-78
2023/05/15 09:22:58;;;;;;;2.97;0.70;;;;;;;11.82;100.00;101410.31;4974584;28;20064;-77
2023/05/15 09:25:39;;;;;;;4.40;0.50;;;;;;;11.80;100.00;101417.56;5044440;28;20041;-77
2023/05/15 09:28:11;;;;;;;3.22;0.52;;;;;;;11.73;100.00;101404.00;5032527;28;20041;-76
2023/05/15 09:30:41;;;;;;;4.00;0.70;;;;;;;11.83;100.00;101416.47;5041611;28;20040;-75
2023/05/15 09:33:09;;;;;;;1.38;0.30;;;;;;;11.71;100.00;101410.38;5034404;28;20038;-77
2023/05/15 09:35:38;;;;;;;2.70;0.52;;;;;;;11.79;100.00;101410.56;5035072;28;20515;-77
2023/05/15 09:38:11;;;;;;;4.65;0.40;;;;;;;11.84;100.00;101396.94;5035940;28;20064;-77
2023/05/15 09:40:41;;;;;;;2.95;0.40;;;;;;;11.71;100.00;101397.13;5041521;28;20400;-78
2023/05/15 09:43:11;;;;;;;2.08;0.63;;;;;;;11.62;100.00;101402.25;5039565;28;20025;-77
2023/05/15 09:45:41;;;;;;;4.93;0.40;;;;;;;11.59;100.00;101405.16;5021294;28;20033;-77
2023/05/15 09:48:13;;;;;;;3.78;0.80;;;;;;;11.74;100.00;101396.88;5034708;28;20029;-77
2023/05/15 09:50:42;;;;;;;5.18;0.50;;;;;;;11.99;100.00;101402.78;5041865;28;20548;-78
2023/05/15 09:53:12;;;;;;;4.28;0.60;;;;;;;12.11;100.00;101400.91;5035731;28;20051;-78
2023/05/15 09:55:42;;;;;;;3.53;0.88;;;;;;;12.19;100.00;101403.75;5040874;28;20039;-78
2023/05/15 09:58:18;;;;;;;1.73;0.70;;;;;;;12.20;100.00;101408.06;5039677;28;20114;-78
2023/05/15 10:00:48;;;;;;;;;;;;;;;12.02;100.00;101402.50;5056762;28;20056;-78
2023/05/15 10:03:22;;;;;;;2.17;0.63;;;;;;;11.97;100.00;101410.00;5040083;28;19916;-78
2023/05/15 10:06:00;;;;;;;1.63;0.50;;;;;;;11.86;100.00;101409.09;5040430;28;20137;-78
2023/05/15 10:08:30;;;;;;;6.45;0.60;;;;;;;11.70;100.00;101406.03;5042380;28;20021;-78
2023/05/15 10:11:00;;;;;;;1.60;0.63;;;;;;;11.57;100.00;101417.66;5038915;28;20040;-78
2023/05/15 10:13:33;;;;;;;3.75;0.40;;;;;;;11.53;100.00;101414.41;5037681;28;20515;-78
2023/05/15 10:16:02;;;;;;;6.22;0.50;;;;;;;11.50;100.00;101409.38;5035088;28;20444;-78
2023/05/15 10:18:32;;;;;;;5.57;0.60;;;;;;;11.53;100.00;101421.53;5040676;28;20033;-78
2023/05/15 10:21:02;;;;;;;3.05;0.40;;;;;;;11.71;100.00;101410.38;5046957;28;20032;-78
2023/05/15 10:23:32;;;;;;;3.03;0.40;;;;;;;11.94;100.00;101413.75;5036724;28;20110;-75
2023/05/15 10:26:04;;;;;;;2.95;0.40;;;;;;;12.07;100.00;101413.53;5032699;28;20036;-75
2023/05/15 10:28:36;;;;;;;1.63;0.28;;;;;;;12.07;99.50;101418.84;5030203;28;20033;-78
2023/05/15 10:31:07;;;;;;;2.45;0.50;;;;;;;12.11;98.66;101415.00;5056845;28;20429;-78
2023/05/15 10:33:37;;;;;;;2.85;0.80;;;;;;;12.26;99.75;101412.84;5048118;28;20033;-78
2023/05/15 10:36:08;;;;;;;2.75;0.50;;;;;;;12.48;100.00;101411.00;5044485;28;20056;-78
2023/05/15 10:38:39;;;;;;;2.50;0.50;;;;;;;12.50;98.55;101414.34;5031839;28;20037;-78
2023/05/15 10:41:11;;;;;;;1.95;0.60;;;;;;;12.49;98.67;101417.13;5038450;28;20041;-78
2023/05/15 10:43:42;;;;;;;2.55;0.60;;;;;;;12.58;99.71;101411.03;5040577;28;20029;-78
2023/05/15 10:46:13;;;;;;;5.07;0.52;;;;;;;12.61;97.45;101402.81;5035806;28;20793;-78
2023/05/15 10:48:43;;;;;;;3.35;0.60;;;;;;;12.53;94.46;101408.78;5040312;28;20021;-78
2023/05/15 10:51:15;;;;;;;5.13;0.52;;;;;;;12.58;90.93;101418.97;5040476;28;20631;-78
2023/05/15 10:53:46;;;;;;;3.42;0.60;;;;;;;12.67;89.87;101412.06;5039683;28;20493;-78
2023/05/15 10:56:16;;;;;;;3.45;0.38;;;;;;;12.73;85.93;101406.22;5040658;28;20060;-78
2023/05/15 10:58:53;;;;;;;2.55;0.40;;;;;;;12.77;86.99;101415.56;5043658;28;20052;-78
2023/05/15 11:01:34;;;;;;;3.30;0.60;;;;;;;12.78;84.20;101419.06;5043285;28;20064;-78
2023/05/15 11:04:08;;;;;;;3.08;0.70;;;;;;;12.67;90.12;101419.16;5042997;28;20044;-77
2023/05/15 11:06:40;;;;;;;4.25;0.50;;;;;;;12.61;91.68;101429.31;5044168;28;20167;-78
2023/05/15 11:09:23;;;;;;;2.28;0.50;;;;;;;12.66;90.19;101423.66;5041770;28;20063;-78
2023/05/15 11:11:54;;;;;;;6.38;0.50;;;;;;;12.63;89.75;101424.75;5047195;28;20124;-78
2023/05/15 11:14:29;;;;;;;4.97;1.40;;;;;;;12.81;90.11;101437.38;5032881;28;20045;-78
2023/05/15 11:17:00;;;;;;;5.97;0.60;;;;;;;12.99;88.95;101429.63;5048002;28;20033;-78
2023/05/15 11:19:33;;;;;;;2.58;0.45;;;;;;;13.07;85.94;101428.94;5039195;28;20385;-78
2023/05/15 11:22:09;;;;;;;2.58;0.40;;;;;;;13.00;83.01;101431.28;5044055;28;20029;-77
2023/05/15 11:25:01;;;;;;;3.92;0.50;;;;;;;13.15;81.58;101437.03;5045328;28;20530;-78
2023/05/15 11:27:32;;;;;;;2.90;0.70;;;;;;;13.19;78.81;101419.03;5007854;28;20041;-78
2023/05/15 11:30:21;;;;;;;6.90;0.60;;;;;;;13.21;75.77;101432.16;5027745;28;20064;-78
2023/05/15 11:33:00;;;;;;;1.80;0.45;;;;;;;13.19;76.81;101432.28;5040794;28;20029;-78
2023/05/15 11:35:48;;;;;;;1.48;0.43;;;;;;;13.23;75.83;101428.41;5038268;28;20090;-78